createdAt,value
2018-02-02T00:00:44.298Z,15.30
2018-02-02T00:03:11.919Z,7.87
2018-02-02T00:05:40.422Z,9.27
2018-02-02T00:08:08.084Z,6.60
2018-02-02T00:10:35.704Z,7.67
2018-02-02T00:13:03.327Z,5.83
2018-02-02T00:15:30.931Z,8.93
2018-02-02T00:17:58.623Z,9.03
2018-02-02T00:20:26.254Z,11.30
2018-02-02T00:22:53.930Z,9.97
2018-02-02T00:25:22.351Z,7.47
2018-02-02T00:27:50.018Z,7.47
2018-02-02T00:30:17.614Z,7.87
2018-02-02T00:32:45.247Z,8.07
2018-02-02T00:35:12.857Z,10.80
2018-02-02T00:37:40.540Z,5.13
2018-02-02T00:40:08.208Z,7.03
2018-02-02T00:42:35.835Z,7.23
2018-02-02T00:45:03.450Z,8.97
2018-02-02T00:47:31.095Z,5.57
2018-02-02T00:49:58.690Z,5.40
2018-02-02T00:52:26.422Z,5.47
2018-02-02T00:54:54.014Z,8.63
2018-02-02T00:57:21.654Z,5.47
2018-02-02T00:59:49.305Z,6.93
2018-02-02T01:02:16.945Z,7.30
2018-02-02T01:04:44.558Z,4.33
2018-02-02T01:07:12.158Z,6.77
2018-02-02T01:09:39.745Z,9.40
2018-02-02T01:12:07.384Z,5.43
2018-02-02T01:14:34.992Z,8.33
2018-02-02T01:17:02.620Z,5.00
2018-02-02T01:19:30.348Z,5.93
2018-02-02T01:21:58.758Z,8.30
2018-02-02T01:24:26.370Z,5.90
2018-02-02T01:26:54.011Z,6.10
2018-02-02T01:29:21.689Z,10.93
2018-02-02T01:31:49.322Z,4.40
2018-02-02T01:34:16.943Z,6.03
2018-02-02T01:36:45.387Z,3.50
2018-02-02T01:39:13.075Z,5.10
2018-02-02T01:41:40.710Z,4.60
2018-02-02T01:44:08.337Z,3.73
2018-02-02T01:46:36.062Z,5.37
2018-02-02T01:49:03.659Z,4.97
2018-02-02T01:51:31.283Z,8.37
2018-02-02T01:53:58.918Z,4.20
2018-02-02T01:56:26.551Z,6.23
2018-02-02T01:58:54.207Z,5.43
2018-02-02T02:01:21.858Z,4.03
2018-02-02T02:03:49.463Z,10.57
2018-02-02T02:06:17.081Z,4.90
2018-02-02T02:08:44.730Z,5.17
2018-02-02T02:11:12.942Z,5.00
2018-02-02T02:13:40.848Z,4.70
2018-02-02T02:16:08.832Z,4.90
2018-02-02T02:18:36.816Z,8.33
2018-02-02T02:21:04.721Z,4.00
2018-02-02T02:23:32.908Z,5.70
2018-02-02T02:26:00.746Z,8.87
2018-02-02T02:28:28.437Z,7.37
2018-02-02T02:30:56.087Z,7.90
2018-02-02T02:33:23.715Z,6.80
2018-02-02T02:35:51.354Z,6.30
2018-02-02T02:38:18.965Z,5.87
2018-02-02T02:40:46.575Z,12.60
2018-02-02T02:43:14.242Z,6.67
2018-02-02T02:45:41.837Z,5.47
2018-02-02T02:48:09.462Z,12.30
2018-02-02T02:50:37.072Z,5.50
2018-02-02T02:53:04.715Z,4.77
2018-02-02T02:55:32.357Z,5.23
2018-02-02T02:57:59.967Z,7.53
2018-02-02T03:00:27.623Z,7.97
2018-02-02T03:02:55.246Z,8.80
2018-02-02T03:05:22.892Z,6.53
2018-02-02T03:07:50.554Z,5.63
2018-02-02T03:10:18.170Z,5.73
2018-02-02T03:12:45.782Z,5.60
2018-02-02T03:15:13.420Z,10.23
2018-02-02T03:17:41.055Z,6.70
2018-02-02T03:20:08.647Z,6.23
2018-02-02T03:22:36.334Z,5.73
2018-02-02T03:25:03.932Z,7.43
2018-02-02T03:27:31.550Z,7.67
2018-02-02T03:29:59.154Z,9.90
2018-02-02T03:32:26.813Z,8.37
2018-02-02T03:34:54.482Z,8.70
2018-02-02T03:37:22.111Z,10.17
2018-02-02T03:39:49.706Z,12.70
2018-02-02T03:42:17.356Z,8.70
2018-02-02T03:44:44.948Z,6.53
2018-02-02T03:47:12.602Z,9.77
2018-02-02T03:49:40.205Z,9.00
2018-02-02T03:52:07.872Z,8.07
2018-02-02T03:54:35.488Z,8.30
2018-02-02T03:57:03.112Z,6.03
2018-02-02T03:59:30.713Z,11.97
2018-02-02T04:01:58.347Z,6.83
2018-02-02T04:04:25.976Z,8.13
2018-02-02T04:06:53.738Z,10.30
2018-02-02T04:09:21.374Z,7.37
2018-02-02T04:11:49.002Z,6.53
2018-02-02T04:14:16.715Z,8.00
2018-02-02T04:16:44.620Z,10.27
2018-02-02T04:19:12.234Z,8.87
2018-02-02T04:21:39.878Z,7.80
2018-02-02T04:24:07.515Z,7.20
2018-02-02T04:26:35.217Z,8.80
2018-02-02T04:29:02.839Z,6.07
2018-02-02T04:31:30.704Z,6.32
2018-02-02T04:33:58.299Z,6.70
2018-02-02T04:36:25.922Z,8.40
2018-02-02T04:38:53.534Z,7.80
2018-02-02T04:41:21.296Z,7.70
2018-02-02T04:43:48.902Z,13.20
2018-02-02T04:46:16.531Z,6.90
2018-02-02T04:48:44.126Z,7.00
2018-02-02T04:51:11.759Z,6.43
2018-02-02T04:53:39.393Z,11.10
2018-02-02T04:56:07.022Z,7.73
2018-02-02T04:58:34.624Z,6.43
2018-02-02T05:01:02.277Z,7.90
2018-02-02T05:03:29.980Z,10.23
2018-02-02T05:05:57.614Z,7.00
2018-02-02T05:08:25.227Z,7.67
2018-02-02T05:10:52.966Z,9.00
2018-02-02T05:13:20.576Z,6.80
2018-02-02T05:15:48.333Z,7.13
2018-02-02T05:18:15.954Z,13.57
2018-02-02T05:20:43.602Z,7.47
2018-02-02T05:23:11.208Z,7.30
2018-02-02T05:25:38.882Z,5.90
2018-02-02T05:28:06.645Z,7.87
2018-02-02T05:30:34.279Z,6.83
2018-02-02T05:33:01.883Z,10.90
2018-02-02T05:35:29.502Z,9.10
2018-02-02T05:37:57.106Z,6.13
2018-02-02T05:40:25.521Z,7.80
2018-02-02T05:42:53.110Z,9.27
2018-02-02T05:45:22.530Z,9.77
2018-02-02T05:47:50.142Z,10.80
2018-02-02T05:50:17.792Z,12.00
2018-02-02T05:52:45.456Z,10.53
2018-02-02T05:55:13.094Z,10.23
2018-02-02T05:57:40.697Z,9.33
2018-02-02T06:00:08.355Z,11.87
2018-02-02T06:02:36.918Z,11.37
2018-02-02T06:05:04.625Z,9.90
2018-02-02T06:07:32.734Z,13.27
2018-02-02T06:10:00.403Z,16.10
2018-02-02T06:12:28.018Z,9.50
2018-02-02T06:14:55.728Z,11.97
2018-02-02T06:17:24.196Z,11.40
2018-02-02T06:19:51.827Z,12.43
2018-02-02T06:22:19.450Z,10.73
2018-02-02T06:24:47.094Z,15.13
2018-02-02T06:27:14.698Z,10.90
2018-02-02T06:29:42.316Z,13.07
2018-02-02T06:32:09.949Z,16.57
2018-02-02T06:34:37.573Z,19.17
2018-02-02T06:37:05.176Z,10.33
2018-02-02T06:39:33.142Z,12.03
2018-02-02T06:42:00.755Z,16.60
2018-02-02T06:44:28.396Z,14.53
2018-02-02T06:46:56.022Z,12.50
2018-02-02T06:49:23.638Z,10.60
2018-02-02T06:51:51.345Z,11.77
2018-02-02T06:54:18.998Z,10.37
2018-02-02T06:56:46.680Z,11.37
2018-02-02T06:59:14.317Z,12.90
2018-02-02T07:01:41.964Z,12.20
2018-02-02T07:04:09.654Z,13.70
2018-02-02T07:06:37.398Z,13.27
2018-02-02T07:09:05.102Z,17.33
2018-02-02T07:11:32.707Z,14.57
2018-02-02T07:14:00.348Z,20.77
2018-02-02T07:16:28.079Z,12.60
2018-02-02T07:18:55.860Z,18.40
2018-02-02T07:21:23.521Z,15.47
2018-02-02T07:23:51.189Z,14.10
2018-02-02T07:26:18.833Z,15.53
2018-02-02T07:28:46.462Z,14.73
2018-02-02T07:31:14.093Z,10.60
2018-02-02T07:33:41.822Z,13.37
2018-02-02T07:36:09.463Z,12.60
2018-02-02T07:38:37.900Z,11.03
2018-02-02T07:41:05.490Z,12.47
2018-02-02T07:43:33.127Z,12.43
2018-02-02T07:46:00.747Z,9.80
2018-02-02T07:48:28.416Z,10.80
2018-02-02T07:50:56.029Z,11.47
2018-02-02T07:53:23.678Z,8.77
2018-02-02T07:55:51.316Z,9.50
2018-02-02T07:58:18.954Z,7.70
2018-02-02T08:00:52.239Z,7.83
2018-02-02T08:03:19.902Z,7.80
2018-02-02T08:05:47.500Z,7.70
2018-02-02T08:08:15.220Z,6.57
2018-02-02T08:10:42.816Z,6.57
2018-02-02T08:13:10.452Z,11.20
2018-02-02T08:15:38.119Z,8.90
2018-02-02T08:18:05.774Z,6.97
2018-02-02T08:20:33.352Z,9.60
2018-02-02T08:23:01.002Z,15.37
2018-02-02T08:25:28.610Z,9.20
2018-02-02T08:27:56.239Z,14.23
2018-02-02T08:30:23.832Z,9.33
2018-02-02T08:32:52.254Z,8.50
2018-02-02T08:35:19.859Z,10.00
2018-02-02T08:37:47.496Z,12.13
2018-02-02T08:40:15.132Z,12.50
2018-02-02T08:42:42.789Z,13.73
2018-02-02T08:45:10.430Z,10.20
2018-02-02T08:47:38.043Z,10.57
2018-02-02T08:50:05.659Z,13.83
2018-02-02T08:52:33.310Z,20.87
2018-02-02T08:55:00.939Z,12.40
2018-02-02T08:57:28.651Z,13.33
2018-02-02T08:59:56.238Z,12.90
2018-02-02T09:02:23.849Z,11.47
2018-02-02T09:04:51.498Z,9.37
2018-02-02T09:07:19.130Z,12.80
2018-02-02T09:09:46.717Z,11.70
2018-02-02T09:12:14.395Z,7.00
2018-02-02T09:14:42.009Z,8.23
2018-02-02T09:17:09.715Z,9.60
2018-02-02T09:19:37.339Z,7.90
2018-02-02T09:22:04.378Z,8.33
2018-02-02T09:24:31.989Z,8.63
2018-02-02T09:26:59.032Z,8.20
2018-02-02T09:29:26.637Z,9.17
2018-02-02T09:31:54.330Z,8.03
2018-02-02T09:34:21.929Z,7.23
2018-02-02T09:36:49.578Z,6.40
2018-02-02T09:39:17.181Z,11.13
2018-02-02T09:41:44.834Z,6.03
2018-02-02T09:44:12.430Z,7.77
2018-02-02T09:46:40.056Z,7.50
2018-02-02T09:49:07.663Z,6.23
2018-02-02T09:51:35.311Z,8.83
2018-02-02T09:54:02.906Z,6.60
2018-02-02T09:56:30.577Z,11.03
2018-02-02T09:58:58.206Z,5.57
2018-02-02T10:01:25.891Z,6.50
2018-02-02T10:03:53.508Z,6.20
2018-02-02T10:06:21.122Z,6.97
2018-02-02T10:08:48.731Z,5.73
2018-02-02T10:11:16.432Z,6.27
2018-02-02T10:13:44.028Z,5.40
2018-02-02T10:16:11.654Z,7.40
2018-02-02T10:18:39.242Z,5.43
2018-02-02T10:21:06.888Z,5.20
2018-02-02T10:23:34.487Z,5.83
2018-02-02T10:26:02.188Z,5.00
2018-02-02T10:28:29.796Z,5.77
2018-02-02T10:30:57.473Z,6.50
2018-02-02T10:33:25.094Z,5.20
2018-02-02T10:35:52.758Z,5.40
2018-02-02T10:38:20.445Z,5.57
2018-02-02T10:40:48.110Z,6.33
2018-02-02T10:43:15.711Z,7.20
2018-02-02T10:45:43.333Z,6.70
2018-02-02T10:48:10.978Z,9.60
2018-02-02T10:50:38.732Z,7.53
2018-02-02T10:53:06.399Z,7.33
2018-02-02T10:55:34.079Z,8.03
2018-02-02T10:58:01.697Z,10.80
2018-02-02T11:00:34.946Z,11.80
2018-02-02T11:03:07.928Z,11.37
2018-02-02T11:05:35.609Z,7.43
2018-02-02T11:08:03.279Z,11.20
2018-02-02T11:10:30.918Z,9.33
2018-02-02T11:12:58.559Z,10.37
2018-02-02T11:15:26.191Z,8.03
2018-02-02T11:17:53.790Z,8.97
2018-02-02T11:20:21.802Z,8.20
2018-02-02T11:22:49.435Z,9.43
2018-02-02T11:25:17.084Z,8.13
2018-02-02T11:27:44.683Z,9.37
2018-02-02T11:30:12.339Z,10.57
2018-02-02T11:32:40.007Z,8.97
2018-02-02T11:35:07.668Z,8.80
2018-02-02T11:37:35.272Z,15.27
2018-02-02T11:40:02.905Z,9.37
2018-02-02T11:42:30.544Z,11.23
2018-02-02T11:44:58.187Z,16.23
2018-02-02T11:47:25.822Z,11.80
2018-02-02T11:49:53.490Z,15.23
2018-02-02T11:52:21.113Z,17.00
2018-02-02T11:54:48.735Z,9.73
2018-02-02T11:57:16.469Z,13.70
2018-02-02T11:59:44.117Z,10.07
2018-02-02T12:02:11.712Z,13.57
2018-02-02T12:04:39.409Z,8.53
2018-02-02T12:07:07.048Z,10.00
2018-02-02T12:09:34.820Z,14.20
2018-02-02T12:12:02.464Z,8.33
2018-02-02T12:14:30.281Z,10.03
2018-02-02T12:16:57.891Z,19.93
2018-02-02T12:19:25.545Z,9.70
2018-02-02T12:21:53.175Z,9.40
2018-02-02T12:24:23.140Z,7.87
2018-02-02T12:27:02.413Z,8.63
2018-02-02T12:32:49.827Z,5.03
2018-02-02T12:35:21.354Z,4.43
2018-02-02T12:37:48.966Z,4.37
2018-02-02T12:40:16.623Z,5.73
2018-02-02T12:42:44.290Z,6.97
2018-02-02T12:45:11.915Z,7.47
2018-02-02T12:47:39.555Z,5.87
2018-02-02T12:50:07.175Z,3.90
2018-02-02T12:52:34.767Z,3.53
2018-02-02T12:55:02.406Z,5.33
2018-02-02T12:57:30.031Z,2.40
2018-02-02T12:59:57.667Z,3.53
2018-02-02T13:02:25.286Z,4.50
2018-02-02T13:04:52.915Z,6.67
2018-02-02T13:07:20.563Z,4.73
2018-02-02T13:09:48.304Z,4.20
2018-02-02T13:12:15.933Z,2.23
2018-02-02T13:14:43.571Z,2.83
2018-02-02T13:17:11.182Z,2.60
2018-02-02T13:19:38.802Z,4.60
2018-02-02T13:22:06.412Z,4.70
2018-02-02T13:24:34.102Z,3.60
2018-02-02T13:27:01.771Z,3.00
2018-02-02T13:29:29.399Z,3.53
2018-02-02T13:31:57.011Z,5.60
2018-02-02T13:34:24.631Z,3.63
2018-02-02T13:36:52.247Z,3.83
2018-02-02T13:39:19.894Z,4.70
2018-02-02T13:41:47.499Z,5.63
2018-02-02T13:44:15.167Z,4.43
2018-02-02T13:46:43.486Z,2.90
2018-02-02T13:49:11.128Z,4.10
2018-02-02T13:51:38.774Z,5.20
2018-02-02T13:54:06.398Z,4.40
2018-02-02T13:56:34.005Z,7.03
2018-02-02T13:59:01.640Z,5.50
2018-02-02T14:01:29.247Z,7.67
2018-02-02T14:03:56.890Z,7.37
2018-02-02T14:06:24.494Z,6.70
2018-02-02T14:08:52.137Z,6.10
2018-02-02T14:11:19.751Z,5.77
2018-02-02T14:13:47.378Z,5.33
2018-02-02T14:16:14.978Z,7.20
2018-02-02T14:18:42.600Z,7.23
2018-02-02T14:21:10.339Z,4.87
2018-02-02T14:23:37.997Z,5.03
2018-02-02T14:26:05.615Z,7.50
2018-02-02T14:28:33.277Z,3.73
2018-02-02T14:31:00.947Z,4.63
2018-02-02T14:33:28.560Z,5.83
2018-02-02T14:35:56.188Z,4.03
2018-02-02T14:38:23.787Z,4.77
2018-02-02T14:40:52.335Z,3.93
2018-02-02T14:43:19.954Z,4.60
2018-02-02T14:45:47.656Z,4.70
2018-02-02T14:48:15.328Z,3.97
2018-02-02T14:50:42.965Z,4.57
2018-02-02T14:53:10.606Z,4.30
2018-02-02T14:55:38.273Z,5.30
2018-02-02T14:58:05.936Z,4.20
2018-02-02T15:00:33.578Z,4.90
2018-02-02T15:03:01.168Z,4.53
2018-02-02T15:05:28.817Z,5.13
2018-02-02T15:07:56.426Z,3.37
2018-02-02T15:10:24.106Z,3.97
2018-02-02T15:12:51.736Z,3.27
2018-02-02T15:15:19.419Z,3.13
2018-02-02T15:17:47.052Z,4.80
2018-02-02T15:20:14.734Z,4.03
2018-02-02T15:22:43.743Z,4.70
2018-02-02T15:25:11.438Z,4.10
2018-02-02T15:27:39.092Z,3.93
2018-02-02T15:30:06.750Z,4.10
2018-02-02T15:32:34.351Z,4.30
2018-02-02T15:35:02.037Z,4.10
2018-02-02T15:37:29.649Z,5.37
2018-02-02T15:39:57.278Z,4.03
2018-02-02T15:42:24.910Z,3.40
2018-02-02T15:44:52.682Z,4.93
2018-02-02T15:47:20.282Z,6.47
2018-02-02T15:49:47.899Z,4.37
2018-02-02T15:52:15.508Z,4.80
2018-02-02T15:54:43.143Z,5.70
2018-02-02T15:57:10.753Z,5.40
2018-02-02T15:59:38.395Z,4.67
2018-02-02T16:02:06.045Z,6.00
2018-02-02T16:04:33.692Z,4.30
2018-02-02T16:07:01.336Z,4.80
2018-02-02T16:09:28.942Z,5.77
2018-02-02T16:11:56.543Z,4.67
2018-02-02T16:14:24.183Z,7.60
2018-02-02T16:16:52.626Z,7.37
2018-02-02T16:19:20.359Z,7.73
2018-02-02T16:21:47.997Z,7.47
2018-02-02T16:24:15.677Z,7.80
2018-02-02T16:26:43.298Z,8.30
2018-02-02T16:29:10.988Z,10.10
2018-02-02T16:31:38.634Z,8.40
2018-02-02T16:34:06.275Z,8.53
2018-02-02T16:36:33.914Z,9.63
2018-02-02T16:39:01.581Z,8.23
2018-02-02T16:41:29.174Z,11.57
2018-02-02T16:43:56.840Z,9.57
2018-02-02T16:46:24.432Z,8.40
2018-02-02T16:48:52.089Z,8.67
2018-02-02T16:51:19.671Z,8.10
2018-02-02T16:53:47.356Z,8.67
2018-02-02T16:56:14.978Z,9.10
2018-02-02T16:58:42.618Z,9.87
2018-02-02T17:01:10.303Z,10.23
2018-02-02T17:03:37.945Z,8.50
2018-02-02T17:06:05.580Z,8.00
2018-02-02T17:08:33.210Z,8.20
2018-02-02T17:11:00.826Z,9.60
2018-02-02T17:13:28.454Z,9.17
2018-02-02T17:15:56.060Z,8.43
2018-02-02T17:18:23.706Z,9.00
2018-02-02T17:20:51.322Z,11.50
2018-02-02T17:23:19.056Z,11.00
2018-02-02T17:25:46.678Z,10.60
2018-02-02T17:28:14.321Z,8.93
2018-02-02T17:30:41.938Z,8.77
2018-02-02T17:33:09.592Z,11.83
2018-02-02T17:35:37.246Z,9.03
2018-02-02T17:38:04.851Z,8.73
2018-02-02T17:40:32.489Z,11.73
2018-02-02T17:43:00.187Z,11.30
2018-02-02T17:45:27.858Z,15.30
2018-02-02T17:47:55.699Z,11.37
2018-02-02T17:50:23.562Z,10.63
2018-02-02T18:04:37.518Z,9.73
2018-02-02T18:07:59.862Z,14.10
2018-02-02T18:10:27.589Z,14.40
2018-02-02T18:12:55.290Z,16.67
2018-02-02T18:15:22.976Z,14.80
2018-02-02T18:17:50.746Z,14.37
2018-02-02T18:20:18.383Z,19.03
2018-02-02T18:22:45.996Z,16.07
2018-02-02T18:25:13.652Z,17.53
2018-02-02T18:27:41.277Z,18.60
2018-02-02T18:30:08.900Z,17.37
2018-02-02T18:32:36.517Z,20.80
2018-02-02T18:35:04.148Z,25.53
2018-02-02T18:37:31.746Z,22.63
2018-02-02T18:39:59.427Z,22.80
2018-02-02T18:42:27.027Z,20.27
2018-02-02T18:44:54.678Z,23.70
2018-02-02T18:47:22.339Z,23.40
2018-02-02T18:49:49.967Z,23.50
2018-02-02T18:52:17.635Z,22.20
2018-02-02T18:54:45.348Z,20.57
2018-02-02T18:57:12.947Z,20.10
2018-02-02T18:59:40.714Z,21.77
2018-02-02T19:02:08.326Z,20.10
2018-02-02T19:04:35.971Z,22.17
2018-02-02T19:07:03.589Z,21.20
2018-02-02T19:09:31.215Z,23.97
2018-02-02T19:11:58.859Z,21.33
2018-02-02T19:14:26.537Z,21.83
2018-02-02T19:16:54.165Z,15.30
2018-02-02T19:19:21.887Z,42.43
2018-02-02T19:21:49.519Z,23.57
2018-02-02T19:24:17.323Z,22.50
2018-02-02T19:26:44.943Z,19.50
2018-02-02T19:29:12.598Z,22.33
2018-02-02T19:31:40.218Z,23.10
2018-02-02T19:34:07.878Z,24.07
2018-02-02T19:36:35.574Z,19.67
2018-02-02T19:39:03.279Z,25.63
2018-02-02T19:41:30.902Z,25.00
2018-02-02T19:43:58.530Z,21.80
2018-02-02T19:46:26.142Z,21.83
2018-02-02T19:48:53.810Z,21.30
2018-02-02T19:51:21.471Z,21.90
2018-02-02T19:53:49.109Z,23.13
2018-02-02T19:56:16.761Z,21.10
2018-02-02T19:58:44.420Z,24.57
2018-02-02T20:01:12.048Z,21.37
2018-02-02T20:03:39.689Z,20.87
2018-02-02T20:06:07.299Z,23.97
2018-02-02T20:08:34.962Z,27.63
2018-02-02T20:11:02.592Z,16.10
2018-02-02T20:13:30.224Z,19.00
2018-02-02T20:15:57.839Z,23.20
2018-02-02T20:18:25.470Z,18.20
2018-02-02T20:20:53.053Z,18.33
2018-02-02T20:23:20.691Z,19.90
2018-02-02T20:25:48.315Z,20.73
2018-02-02T20:28:15.947Z,13.90
2018-02-02T20:30:43.586Z,19.27
2018-02-02T20:33:11.215Z,15.07
2018-02-02T20:35:38.835Z,17.10
2018-02-02T20:38:06.483Z,14.47
2018-02-02T20:40:34.115Z,38.60
2018-02-02T20:43:01.758Z,49.53
2018-02-02T20:45:29.373Z,15.30
2018-02-02T20:47:57.022Z,15.33
2018-02-02T20:50:24.622Z,15.50
2018-02-02T20:52:52.252Z,16.33
2018-02-02T20:55:19.856Z,21.53
2018-02-02T20:57:47.482Z,15.60
2018-02-02T21:00:15.126Z,19.70
2018-02-02T21:02:42.822Z,16.20
2018-02-02T21:05:10.456Z,18.00
2018-02-02T21:07:38.326Z,23.60
2018-02-02T21:10:05.916Z,17.23
2018-02-02T21:12:33.558Z,18.87
2018-02-02T21:15:01.186Z,20.23
2018-02-02T21:17:28.806Z,21.20
2018-02-02T21:19:56.414Z,19.07
2018-02-02T21:22:24.087Z,21.37
2018-02-02T21:24:51.678Z,20.07
2018-02-02T21:27:19.326Z,24.30
2018-02-02T21:29:46.944Z,27.10
2018-02-02T21:32:14.643Z,20.17
2018-02-02T21:34:42.235Z,19.90
2018-02-02T21:37:09.830Z,18.97
2018-02-02T21:39:37.566Z,21.43
2018-02-02T21:42:05.173Z,19.17
2018-02-02T21:44:32.927Z,18.87
2018-02-02T21:47:00.574Z,17.63
2018-02-02T21:49:28.210Z,21.03
2018-02-02T21:51:55.816Z,18.77
2018-02-02T21:54:23.502Z,18.30
2018-02-02T21:56:51.151Z,20.00
2018-02-02T21:59:18.845Z,20.20
2018-02-02T22:01:46.461Z,23.37
2018-02-02T22:04:14.935Z,25.43
2018-02-02T22:06:42.604Z,17.20
2018-02-02T22:09:11.282Z,23.20
2018-02-02T22:11:38.916Z,9.93
2018-02-02T22:14:06.589Z,11.97
2018-02-02T22:16:35.019Z,9.83
2018-02-02T22:19:02.699Z,10.23
2018-02-02T22:21:30.333Z,11.00
2018-02-02T22:23:58.007Z,11.30
2018-02-02T22:26:25.628Z,9.23
2018-02-02T22:28:53.859Z,11.80
2018-02-02T22:31:21.560Z,10.50
2018-02-02T22:33:49.400Z,12.23
2018-02-02T22:36:17.068Z,11.43
2018-02-02T22:38:44.716Z,10.90
2018-02-02T22:41:12.428Z,15.63
2018-02-02T22:43:40.023Z,15.00
2018-02-02T22:46:07.699Z,17.43
2018-02-02T22:48:35.324Z,11.37
2018-02-02T22:51:02.975Z,14.53
2018-02-02T22:53:30.674Z,14.30
2018-02-02T22:55:58.332Z,11.73
2018-02-02T22:58:26.173Z,12.00
2018-02-02T23:00:53.853Z,13.43
2018-02-02T23:03:21.457Z,12.60
2018-02-02T23:05:49.171Z,13.80
2018-02-02T23:08:16.783Z,13.73
2018-02-02T23:10:44.424Z,16.40
2018-02-02T23:13:12.023Z,13.07
2018-02-02T23:15:39.658Z,13.60
2018-02-02T23:18:07.257Z,17.47
2018-02-02T23:20:35.304Z,12.30
2018-02-02T23:23:02.967Z,13.40
2018-02-02T23:25:32.218Z,12.60
2018-02-02T23:27:59.863Z,10.87
2018-02-02T23:30:27.600Z,15.90
2018-02-02T23:32:55.193Z,13.80
2018-02-02T23:35:23.953Z,9.50
2018-02-02T23:37:51.560Z,10.43
2018-02-02T23:40:19.195Z,10.10
2018-02-02T23:42:46.807Z,8.37
2018-02-02T23:45:14.764Z,8.80
2018-02-02T23:47:42.368Z,9.13
2018-02-02T23:50:10.032Z,10.27
2018-02-02T23:52:37.669Z,9.97
2018-02-02T23:55:05.351Z,12.33
2018-02-02T23:57:32.979Z,9.40
